Flight Track Log - Related Links

Times and Time Zones

All times are in EDT time to prevent confusion due to time zone crossing. See the SWA706 flight status page for this flight to view local times or setup timezone preferences in your user account.

Time Position Orientation Groundspeed Altitude Reporting Facility
EDT Latitude Longitude Course Direction KTS MPH feet Rate Location/Type
Sat 08:38:58 AM 39.1333 -76.6667 207° Southwest 197 227 2,800  Level Potomac TRACON
Sat 08:39:59 AM 39.1500 -76.7333 288° West 222 255 6,600 2,132 Climbing Potomac TRACON
Sat 08:40:59 AM 39.1667 -76.8333 282° West 272 313 7,100 1,421 Climbing Potomac TRACON
Sat 08:41:53 AM 39.2000 -76.9167 297° West 281 323 9,300 2,947 Climbing Potomac TRACON
Sat 08:42:53 AM 39.2167 -77.0167 282° West 290 334 12,700 2,926 Climbing Potomac TRACON
Sat 08:43:54 AM 39.2167 -77.1167 270° West 330 380 15,200 2,281 Climbing Potomac TRACON
Sat 08:44:00 AM 38.9941 -77.3206 207° Southwest  Level FlightAware Approximate
Sat 08:44:54 AM 39.1500 -77.2167 229° Southwest 381 438 17,300  Level Potomac TRACON
Sat 08:45:54 AM 39.0500 -77.3000 213° Southwest 412 474 19,300 2,178 Climbing Potomac TRACON
Sat 08:47:31 AM 38.8767 -77.4128 207° Southwest 455 524 23,000 1,414 Climbing Washington Center
Sat 08:48:31 AM 38.7650 -77.4847 207° Southwest 448 516 23,000 393 Level Washington Center
Sat 08:49:33 AM 38.6614 -77.5725 213° Southwest 443 510 23,800 1,328 Climbing Washington Center
Sat 08:50:33 AM 38.5661 -77.6708 219° Southwest 443 510 25,700 1,729 Climbing Washington Center
Sat 08:51:31 AM 38.4764 -77.7875 226° Southwest 453 521 27,200 1,866 Climbing Washington Center
Sat 08:52:32 AM 38.4072 -77.9206 236° Southwest 459 528 29,400 1,426 Climbing Washington Center
Sat 08:53:33 AM 38.3356 -78.0561 236° Southwest 459 528 30,100 857 Climbing Washington Center
Sat 08:54:31 AM 38.2661 -78.1886 236° Southwest 459 528 31,100 958 Climbing Washington Center
Sat 08:55:32 AM 38.1861 -78.3153 231° Southwest 459 528 32,000 934 Climbing Washington Center
Sat 08:56:33 AM 38.1042 -78.4286 227° Southwest 459 528 33,000 1,261 Climbing Washington Center
Sat 08:57:31 AM 38.0264 -78.5442 230° Southwest 442 509 34,500 1,525 Climbing Washington Center
Sat 08:58:31 AM 37.9550 -78.6467 229° Southwest 437 503 36,000 1,388 Climbing Washington Center
Sat 08:59:32 AM 37.8728 -78.7617 228° Southwest 437 503 37,300 984 Climbing Washington Center
Sat 09:00:33 AM 37.8131 -78.8881 239° Southwest 437 503 38,000 353 Climbing Washington Center
Sat 09:01:31 AM 37.7531 -79.0194 240° Southwest 437 503 38,000  Level Washington Center
Sat 09:02:32 AM 37.6864 -79.1608 239° Southwest 429 494 38,000  Level Washington Center
Sat 09:03:33 AM 37.6261 -79.2917 240° Southwest 429 494 38,000  Level Washington Center
Sat 09:04:31 AM 37.5636 -79.4197 238° Southwest 429 494 38,000  Level Washington Center
Sat 09:05:31 AM 37.5072 -79.5478 241° Southwest 429 494 38,000  Level Washington Center
Sat 09:06:32 AM 37.4469 -79.6728 239° Southwest 429 494 38,000  Level Washington Center
Sat 09:08:44 AM 37.3142 -79.9475 239° Southwest 438 504 38,000  Level Atlanta Center
Sat 09:09:44 AM 37.2536 -80.0731 239° Southwest 438 504 38,000  Level Atlanta Center
Sat 09:10:44 AM 37.1931 -80.2011 239° Southwest 438 504 38,000  Level Atlanta Center
Sat 09:11:44 AM 37.1303 -80.3317 239° Southwest 438 504 38,000  Level Atlanta Center
Sat 09:12:44 AM 37.0636 -80.4703 239° Southwest 438 504 38,000  Level Atlanta Center
Sat 09:13:44 AM 37.0028 -80.5978 239° Southwest 433 498 38,000  Level Atlanta Center
Sat 09:14:44 AM 36.9414 -80.7225 238° Southwest 433 498 38,000  Level Atlanta Center
Sat 09:15:44 AM 36.8822 -80.8469 239° Southwest 433 498 38,000  Level Atlanta Center
Sat 09:16:44 AM 36.8267 -80.9581 238° Southwest 433 498 38,000  Level Atlanta Center
Sat 09:17:44 AM 36.7672 -81.0822 239° Southwest 428 493 38,000  Level Atlanta Center
Sat 09:18:44 AM 36.7117 -81.2006 240° Southwest 417 480 38,000  Level Atlanta Center
Sat 09:19:44 AM 36.6478 -81.3322 239° Southwest 417 480 38,000  Level Atlanta Center
Sat 09:20:44 AM 36.5881 -81.4558 239° Southwest 417 480 38,000  Level Atlanta Center
Sat 09:21:44 AM 36.5319 -81.5661 238° Southwest 417 480 38,000  Level Atlanta Center
Sat 09:22:44 AM 36.4678 -81.6997 239° Southwest 417 480 38,000  Level Atlanta Center
Sat 09:23:44 AM 36.4075 -81.8228 239° Southwest 417 480 38,000  Level Atlanta Center
Sat 09:24:44 AM 36.3508 -81.9275 236° Southwest 422 486 38,000  Level Atlanta Center
Sat 09:25:44 AM 36.2903 -82.0500 239° Southwest 427 491 38,000  Level Atlanta Center
Sat 09:26:44 AM 36.2236 -82.1856 239° Southwest 419 482 38,000  Level Atlanta Center
Sat 09:27:44 AM 36.1669 -82.2925 237° Southwest 419 482 38,000  Level Atlanta Center
Sat 09:28:44 AM 36.1017 -82.4147 237° Southwest 419 482 38,000  Level Atlanta Center
Sat 09:29:44 AM 36.0347 -82.5469 238° Southwest 419 482 38,000  Level Atlanta Center
Sat 09:30:44 AM 35.9714 -82.6711 238° Southwest 426 490 38,000  Level Atlanta Center
Sat 09:31:44 AM 35.9081 -82.7928 237° Southwest 426 490 38,000  Level Atlanta Center
Sat 09:32:44 AM 35.8444 -82.9192 238° Southwest 431 496 38,000  Level Atlanta Center
Sat 09:33:44 AM 35.7789 -83.0431 237° Southwest 431 496 38,000  Level Atlanta Center
Sat 09:34:44 AM 35.7153 -83.1667 238° Southwest 431 496 38,000  Level Atlanta Center
Sat 09:35:44 AM 35.6556 -83.2872 239° Southwest 431 496 38,000  Level Atlanta Center
Sat 09:36:44 AM 35.5914 -83.4081 237° Southwest 431 496 38,000  Level Atlanta Center
Sat 09:37:44 AM 35.5275 -83.5308 237° Southwest 431 496 38,000  Level Atlanta Center
Sat 09:38:44 AM 35.4631 -83.6536 237° Southwest 431 496 38,000  Level Atlanta Center
Sat 09:39:44 AM 35.3989 -83.7739 237° Southwest 436 502 38,000  Level Atlanta Center
Sat 09:40:44 AM 35.3425 -83.8861 238° Southwest 436 502 38,000  Level Atlanta Center
Sat 09:41:44 AM 35.2758 -84.0058 236° Southwest 436 502 38,000  Level Atlanta Center
Sat 09:42:44 AM 35.2114 -84.1278 237° Southwest 436 502 38,000  Level Atlanta Center
Sat 09:43:44 AM 35.1486 -84.2444 237° Southwest 436 502 38,000  Level Atlanta Center
Sat 09:44:44 AM 35.0836 -84.3661 237° Southwest 431 496 38,000  Level Atlanta Center
Sat 09:45:44 AM 35.0186 -84.4850 236° Southwest 431 496 38,000  Level Atlanta Center
Sat 09:46:44 AM 34.9533 -84.6039 236° Southwest 431 496 38,000  Level Atlanta Center
Sat 09:47:44 AM 34.8900 -84.7250 238° Southwest 431 496 38,000  Level Atlanta Center
Sat 09:48:44 AM 34.8225 -84.8458 236° Southwest 431 496 38,000  Level Atlanta Center
Sat 09:49:44 AM 34.7592 -84.9667 237° Southwest 436 502 38,000  Level Atlanta Center
Sat 09:50:44 AM 34.6936 -85.0847 236° Southwest 436 502 38,000  Level Atlanta Center
Sat 09:51:44 AM 34.6256 -85.2025 235° Southwest 436 502 38,000  Level Atlanta Center
Sat 09:52:44 AM 34.5619 -85.3228 237° Southwest 436 502 38,000  Level Atlanta Center
Sat 09:53:44 AM 34.4958 -85.4400 236° Southwest 436 502 38,000  Level Atlanta Center
Sat 09:54:44 AM 34.4339 -85.5575 237° Southwest 431 496 38,000  Level Atlanta Center
Sat 09:55:44 AM 34.3633 -85.6869 237° Southwest 426 490 38,000  Level Atlanta Center
Sat 09:56:44 AM 34.2972 -85.8039 236° Southwest 426 490 38,000  Level Atlanta Center
Sat 09:57:44 AM 34.2308 -85.9131 234° Southwest 421 484 38,000  Level Atlanta Center
Sat 09:58:44 AM 34.1644 -86.0272 235° Southwest 421 484 38,000  Level Atlanta Center
Sat 09:59:44 AM 34.1019 -86.1436 237° Southwest 421 484 38,000  Level Atlanta Center
Sat 10:00:44 AM 34.0353 -86.2572 235° Southwest 421 484 38,000  Level Atlanta Center
Sat 10:01:44 AM 33.9683 -86.3758 236° Southwest 421 484 38,000  Level Atlanta Center
Sat 10:02:44 AM 33.9075 -86.4917 238° Southwest 421 484 38,000  Level Atlanta Center
Sat 10:03:44 AM 33.8569 -86.6178 244° Southwest 421 484 38,000  Level Atlanta Center
Sat 10:04:44 AM 33.8019 -86.7486 243° Southwest 421 484 38,000  Level Atlanta Center
Sat 10:05:44 AM 33.7511 -86.8769 245° Southwest 426 490 38,000  Level Atlanta Center
Sat 10:06:44 AM 33.6981 -87.0025 243° Southwest 426 490 38,000  Level Atlanta Center
Sat 10:07:44 AM 33.6469 -87.1306 244° Southwest 426 490 38,000  Level Atlanta Center
Sat 10:09:20 AM 33.5600 -87.3383 243° Southwest 428 493 38,000  Level Memphis Center
Sat 10:10:20 AM 33.5086 -87.4647 244° Southwest 428 493 38,000  Level Memphis Center
Sat 10:11:20 AM 33.4553 -87.5911 243° Southwest 428 493 38,000  Level Memphis Center
Sat 10:12:20 AM 33.4017 -87.7194 243° Southwest 428 493 38,000  Level Memphis Center
Sat 10:13:20 AM 33.3500 -87.8456 244° Southwest 428 493 38,000  Level Memphis Center
Sat 10:14:20 AM 33.2961 -87.9664 242° Southwest 428 493 38,000  Level Memphis Center
Sat 10:15:20 AM 33.2461 -88.0944 245° Southwest 423 487 38,000  Level Memphis Center
Sat 10:16:20 AM 33.1961 -88.2197 245° Southwest 423 487 38,000  Level Memphis Center
Sat 10:17:20 AM 33.1439 -88.3425 243° Southwest 423 487 38,000  Level Memphis Center
Sat 10:18:20 AM 33.0936 -88.4553 242° Southwest 430 495 38,000  Level Memphis Center
Sat 10:19:20 AM 33.0392 -88.5828 243° Southwest 430 495 38,000  Level Memphis Center
Sat 10:20:20 AM 32.9844 -88.7103 243° Southwest 430 495 38,000  Level Memphis Center
Sat 10:21:20 AM 32.9278 -88.8375 242° Southwest 430 495 38,000  Level Memphis Center
Sat 10:22:20 AM 32.8750 -88.9647 244° Southwest 430 495 38,000  Level Memphis Center
Sat 10:23:20 AM 32.8178 -89.0917 242° Southwest 430 495 38,000  Level Memphis Center
Sat 10:24:20 AM 32.7606 -89.2183 242° Southwest 430 495 38,000  Level Memphis Center
Sat 10:25:20 AM 32.7053 -89.3450 243° Southwest 435 501 38,000  Level Memphis Center
Sat 10:26:20 AM 32.6500 -89.4692 242° Southwest 435 501 38,000  Level Memphis Center
Sat 10:27:20 AM 32.5944 -89.5953 242° Southwest 435 501 38,000  Level Memphis Center
Sat 10:28:20 AM 32.5386 -89.7217 242° Southwest 435 501 38,000  Level Memphis Center
Sat 10:29:20 AM 32.4789 -89.8550 242° Southwest 435 501 38,000  Level Memphis Center
Sat 10:30:20 AM 32.4228 -89.9783 242° Southwest 430 495 38,000  Level Memphis Center
Sat 10:31:20 AM 32.3669 -90.1039 242° Southwest 430 495 38,000  Level Memphis Center
Sat 10:32:20 AM 32.3128 -90.2244 242° Southwest 430 495 38,000  Level Memphis Center
Sat 10:33:20 AM 32.2628 -90.3378 242° Southwest 430 495 38,000  Level Memphis Center
Sat 10:34:20 AM 32.2064 -90.4581 241° Southwest 430 495 38,000  Level Memphis Center
Sat 10:35:20 AM 32.1519 -90.5806 242° Southwest 430 495 38,000  Level Memphis Center
Sat 10:36:16 AM 32.1033 -90.6889 242° Southwest 418 481 38,000  Level Houston Center
Sat 10:37:17 AM 32.0436 -90.8219 242° Southwest 419 482 38,000  Level Houston Center
Sat 10:38:19 AM 31.9900 -90.9406 242° Southwest 413 475 38,000  Level Houston Center
Sat 10:39:20 AM 31.9344 -91.0608 241° Southwest 415 478 38,000  Level Houston Center
Sat 10:40:22 AM 31.8778 -91.1803 241° Southwest 419 482 38,000  Level Houston Center
Sat 10:41:23 AM 31.8231 -91.2994 242° Southwest 415 478 38,000  Level Houston Center
Sat 10:42:25 AM 31.7667 -91.4197 241° Southwest 418 481 38,000  Level Houston Center
Sat 10:43:27 AM 31.6989 -91.5647 241° Southwest 423 487 38,000  Level Houston Center
Sat 10:44:28 AM 31.6433 -91.6853 242° Southwest 421 484 38,000  Level Houston Center
Sat 10:45:30 AM 31.5878 -91.8053 242° Southwest 419 482 38,000  Level Houston Center
Sat 10:46:31 AM 31.5303 -91.9242 240° Southwest 418 481 38,000  Level Houston Center
Sat 10:47:33 AM 31.4719 -92.0475 241° Southwest 412 474 38,000  Level Houston Center
Sat 10:48:35 AM 31.4156 -92.1642 240° Southwest 410 472 38,000  Level Houston Center
Sat 10:49:36 AM 31.3608 -92.2808 241° Southwest 410 472 38,000  Level Houston Center
Sat 10:50:38 AM 31.3047 -92.3978 241° Southwest 414 476 38,000  Level Houston Center
Sat 10:51:39 AM 31.2483 -92.5150 241° Southwest 416 479 38,000  Level Houston Center
Sat 10:52:41 AM 31.2053 -92.6358 247° West 409 471 38,000  Level Houston Center
Sat 10:53:43 AM 31.1528 -92.7825 247° West 407 468 38,000  Level Houston Center
Sat 10:54:44 AM 31.1278 -92.9061 257° West 401 461 38,000  Level Houston Center
Sat 10:55:46 AM 31.1325 -93.0356 272° West 402 463 38,000  Level Houston Center
Sat 10:56:47 AM 31.1383 -93.1631 273° West 398 458 38,000  Level Houston Center
Sat 10:57:49 AM 31.1444 -93.2919 273° West 398 458 38,000 -48 Level Houston Center
Sat 10:58:51 AM 31.1144 -93.4125 254° West 405 466 37,900 -293 Descending Houston Center
Sat 10:59:52 AM 31.0408 -93.5464 237° Southwest 411 473 37,400 -683 Descending Houston Center
Sat 11:00:54 AM 30.9781 -93.6583 237° Southwest 415 478 36,500 -919 Descending Houston Center
Sat 11:01:56 AM 30.9156 -93.7711 237° Southwest 417 480 35,500 -1,463 Descending Houston Center
Sat 11:02:57 AM 30.8519 -93.8861 237° Southwest 424 488 33,500 -2,390 Descending Houston Center
Sat 11:03:59 AM 30.7881 -93.9989 237° Southwest 422 486 30,600 -2,565 Descending Houston Center
Sat 11:05:01 AM 30.7256 -94.1106 237° Southwest 418 481 28,200 -2,516 Descending Houston Center
Sat 11:06:03 AM 30.6531 -94.2392 237° Southwest 399 459 25,400 -2,488 Descending Houston Center
Sat 11:07:04 AM 30.5942 -94.3428 237° Southwest 389 448 23,100 -2,241 Descending Houston Center
Sat 11:07:26 AM 30.5719 -94.3808 236° Southwest 380 437 22,300 -2,032 Descending Houston Center
Sat 11:08:06 AM 30.5372 -94.4431 237° Southwest 377 434 21,000 -2,152 Descending Houston Center
Sat 11:08:58 AM 30.4842 -94.5356 236° Southwest 366 421 19,000 -2,230 Descending Houston Center
Sat 11:09:59 AM 30.4219 -94.6308 233° Southwest 361 415 16,800 -2,213 Descending Houston Center
Sat 11:11:00 AM 30.3614 -94.7236 233° Southwest 363 418 14,500 -2,115 Descending Houston Center
Sat 11:12:01 AM 30.2972 -94.8211 233° Southwest 362 417 12,500 -1,733 Descending Houston Center
Sat 11:13:15 AM 30.2331 -94.9242 234° Southwest 345 397 10,600 -1,230 Descending Houston Center
Sat 11:14:03 AM 30.1858 -94.9972 233° Southwest 328 377 10,000 -330 Descending Houston Center
Sat 11:15:04 AM 30.1256 -95.0725 227° Southwest 328 377 10,000  Level Houston Center
Sat 11:16:11 AM 30.0350 -95.1150 202° Southwest 284 327 10,000  Level Houston Center
Sat 11:17:07 AM 29.9683 -95.1425 200° South 283 326 10,000 85 Level Houston Center
Sat 11:17:22 AM 29.9631 -95.1450 202° Southwest 284 327 10,100 -1,100 Climbing Houston Center
Sat 11:18:07 AM 29.8936 -95.1758 201° Southwest 286 329 8,900 -1,279 Descending Houston Center
Sat 11:18:23 AM 29.8903 -95.1769 196° South 282 325 8,800 -1,500 Descending Houston Center
Sat 11:19:03 AM 29.8269 -95.2033 200° South 274 315 7,500 -2,129 Descending Houston Center
Sat 11:19:25 AM 29.8033 -95.2139 201° Southwest 278 320 6,600 -1,818 Descending Houston Center
Sat 11:20:09 AM 29.7786 -95.2717 244° Southwest 280 322 5,500 -1,548 Descending Houston Center
Sat 11:20:27 AM 29.7797 -95.2919 274° West 277 319 5,000 -1,418 Descending Houston Center
Sat 11:21:04 AM 29.7794 -95.3486 270° West 264 304 4,200 -689 Descending Houston Center
Sat 11:21:28 AM 29.7806 -95.3747 273° West 269 310 4,300 -985 Climbing Houston Center
Sat 11:22:11 AM 29.7603 -95.4136 239° Southwest 167 192 3,100 -1,452 Descending Houston Center
Sat 11:22:30 AM 29.7522 -95.4139 182° South 212 244 2,800 -1,309 Descending Houston Center
Sat 11:23:06 AM 29.7319 -95.3808 125° Southeast 182 209 1,900 -871 Descending Houston Center
Sat 11:23:32 AM 29.7236 -95.3719 137° Southeast 186 214 1,900 -327 Level Houston Center
Sat 11:24:01 AM 29.7042 -95.3506 136° Southeast 158 182 1,600 -581 Descending Houston Center
Sat 11:24:34 AM 29.6933 -95.3372 133° Southeast 166 191 1,300 -806 Descending Houston Center
Sat 11:25:08 AM 29.6733 -95.3133 134° Southeast 128 147 700 -885 Descending Houston Center
Sat 11:25:35 AM 29.6633 -95.3006 132° Southeast 146 168 400 -667 Descending Houston Center
Sat 11:28:00 AM 29.6454 -95.2789 134° Southeast  Level Estimated

Login

Don't have an account? Register now (free) for customized features, flight alerts, and more!